createdAt,value
2018-11-04T00:01:36.641Z,31.87
2018-11-04T00:04:05.902Z,35.70
2018-11-04T00:06:35.029Z,29.77
2018-11-04T00:09:05.382Z,41.40
2018-11-04T00:11:34.583Z,31.57
2018-11-04T00:14:04.125Z,38.37
2018-11-04T00:16:33.313Z,33.97
2018-11-04T00:19:02.485Z,37.73
2018-11-04T00:21:31.661Z,34.93
2018-11-04T00:24:00.873Z,33.77
2018-11-04T00:26:30.078Z,40.07
2018-11-04T00:28:59.275Z,37.33
2018-11-04T00:31:28.541Z,27.67
2018-11-04T00:33:57.753Z,30.80
2018-11-04T00:36:26.947Z,35.80
2018-11-04T00:38:56.174Z,34.83
2018-11-04T00:41:25.407Z,28.57
2018-11-04T00:43:54.614Z,29.97
2018-11-04T00:46:23.801Z,44.97
2018-11-04T00:48:53.008Z,31.87
2018-11-04T00:51:22.224Z,36.58
2018-11-04T00:53:51.618Z,39.97
2018-11-04T00:56:20.802Z,35.33
2018-11-04T00:58:50.023Z,32.63
2018-11-04T01:01:19.291Z,32.20
2018-11-04T01:03:48.464Z,35.87
2018-11-04T01:06:17.720Z,34.33
2018-11-04T01:08:46.952Z,40.43
2018-11-04T01:11:16.115Z,34.90
2018-11-04T01:13:45.364Z,29.80
2018-11-04T01:16:14.687Z,36.90
2018-11-04T01:18:43.893Z,37.63
2018-11-04T01:21:13.134Z,36.50
2018-11-04T01:23:42.295Z,38.80
2018-11-04T01:26:11.559Z,42.33
2018-11-04T01:28:40.787Z,42.73
2018-11-04T01:31:10.090Z,39.23
2018-11-04T01:33:39.220Z,41.83
2018-11-04T01:36:08.417Z,41.40
2018-11-04T01:38:37.952Z,36.90
2018-11-04T01:41:07.332Z,42.47
2018-11-04T01:43:37.082Z,50.53
2018-11-04T01:46:06.288Z,40.43
2018-11-04T01:48:35.578Z,41.47
2018-11-04T01:51:04.797Z,41.70
2018-11-04T01:53:34.026Z,44.13
2018-11-04T01:56:03.268Z,46.93
2018-11-04T01:58:32.513Z,59.70
2018-11-04T02:01:01.896Z,43.70
2018-11-04T02:03:31.115Z,53.93
2018-11-04T02:06:00.282Z,45.00
2018-11-04T02:08:29.612Z,53.57
2018-11-04T02:10:58.791Z,45.50
2018-11-04T02:13:27.982Z,47.62
2018-11-04T02:15:57.247Z,53.07
2018-11-04T02:18:26.449Z,44.10
2018-11-04T02:20:55.671Z,52.37
2018-11-04T02:23:24.975Z,45.50
2018-11-04T02:25:54.205Z,47.00
2018-11-04T02:28:23.525Z,50.43
2018-11-04T02:30:52.698Z,51.90
2018-11-04T02:33:21.868Z,53.10
2018-11-04T02:35:51.052Z,52.30
2018-11-04T02:38:20.458Z,56.60
2018-11-04T02:40:49.854Z,48.37
2018-11-04T02:43:19.052Z,46.83
2018-11-04T02:45:48.317Z,54.33
2018-11-04T02:48:17.522Z,46.43
2018-11-04T02:50:46.743Z,48.80
2018-11-04T02:53:15.977Z,49.63
2018-11-04T02:55:45.230Z,48.45
2018-11-04T02:58:14.540Z,47.63
2018-11-04T03:00:43.831Z,44.63
2018-11-04T03:03:13.016Z,43.43
2018-11-04T03:05:42.195Z,41.53
2018-11-04T03:08:11.432Z,38.88
2018-11-04T03:10:40.591Z,40.00
2018-11-04T03:13:09.842Z,46.57
2018-11-04T03:15:39.041Z,48.50
2018-11-04T03:18:08.199Z,42.40
2018-11-04T03:20:37.398Z,53.73
2018-11-04T03:23:07.175Z,46.17
2018-11-04T03:25:36.366Z,49.00
2018-11-04T03:28:06.001Z,51.17
2018-11-04T03:30:35.557Z,44.73
2018-11-04T03:33:04.747Z,45.83
2018-11-04T03:35:33.926Z,48.23
2018-11-04T03:38:03.126Z,49.77
2018-11-04T03:40:32.307Z,49.23
2018-11-04T03:43:01.480Z,52.27
2018-11-04T03:45:30.727Z,47.50
2018-11-04T03:47:59.919Z,45.30
2018-11-04T03:50:29.184Z,48.33
2018-11-04T03:53:02.495Z,50.03
2018-11-04T03:55:31.664Z,78.07
2018-11-04T03:58:00.915Z,49.97
2018-11-04T04:00:30.107Z,50.30
2018-11-04T04:02:59.335Z,48.07
2018-11-04T04:05:28.740Z,46.70
2018-11-04T04:07:57.995Z,44.63
2018-11-04T04:10:27.140Z,46.03
2018-11-04T04:12:56.636Z,42.87
2018-11-04T04:15:25.908Z,47.43
2018-11-04T04:17:55.107Z,53.93
2018-11-04T04:20:24.316Z,50.20
2018-11-04T04:22:53.544Z,59.67
2018-11-04T04:25:22.746Z,55.87
2018-11-04T04:27:51.975Z,53.87
2018-11-04T04:30:21.167Z,61.30
2018-11-04T04:32:50.319Z,61.43
2018-11-04T04:35:19.511Z,50.10
2018-11-04T04:37:48.659Z,59.00
2018-11-04T04:40:17.814Z,47.67
2018-11-04T04:42:46.975Z,58.83
2018-11-04T04:45:16.173Z,52.60
2018-11-04T04:47:45.345Z,66.77
2018-11-04T04:50:14.575Z,55.93
2018-11-04T04:52:43.830Z,65.13
2018-11-04T04:55:13.058Z,58.87
2018-11-04T04:57:42.309Z,69.37
2018-11-04T05:00:11.563Z,65.83
2018-11-04T05:02:40.741Z,70.63
2018-11-04T05:05:10.044Z,80.43
2018-11-04T05:07:39.266Z,73.60
2018-11-04T05:10:08.575Z,64.70
2018-11-04T05:12:37.780Z,67.63
2018-11-04T05:15:08.420Z,73.40
2018-11-04T05:17:37.772Z,67.00
2018-11-04T05:20:07.023Z,68.83
2018-11-04T05:22:36.223Z,70.70
2018-11-04T05:25:06.279Z,73.97
2018-11-04T05:27:35.569Z,66.50
2018-11-04T05:30:06.198Z,67.47
2018-11-04T05:32:35.369Z,71.70
2018-11-04T05:35:04.735Z,66.50
2018-11-04T05:37:33.972Z,86.22
2018-11-04T05:40:03.206Z,67.33
2018-11-04T05:42:32.404Z,78.77
2018-11-04T05:45:01.801Z,101.83
2018-11-04T05:47:31.026Z,83.77
2018-11-04T05:50:00.258Z,85.30
2018-11-04T05:52:29.561Z,85.27
2018-11-04T05:54:58.763Z,85.70
2018-11-04T05:57:28.024Z,90.37
2018-11-04T05:59:57.252Z,93.93
2018-11-04T06:02:26.604Z,89.57
2018-11-04T06:04:55.776Z,90.10
2018-11-04T06:07:25.007Z,94.33
2018-11-04T06:09:54.211Z,97.57
2018-11-04T06:12:23.410Z,87.53
2018-11-04T06:14:52.699Z,105.97
2018-11-04T06:17:21.880Z,106.78
2018-11-04T06:19:51.131Z,105.27
2018-11-04T06:22:20.340Z,106.60
2018-11-04T06:24:49.572Z,112.50
2018-11-04T06:27:18.854Z,103.32
2018-11-04T06:29:48.030Z,99.17
2018-11-04T06:32:17.283Z,113.67
2018-11-04T06:34:46.565Z,106.53
2018-11-04T06:37:15.795Z,94.95
2018-11-04T06:39:45.024Z,96.53
2018-11-04T06:42:14.216Z,105.70
2018-11-04T06:44:43.475Z,102.00
2018-11-04T06:47:12.755Z,105.67
2018-11-04T06:49:41.960Z,111.57
2018-11-04T06:52:11.280Z,109.50
2018-11-04T06:54:41.202Z,96.17
2018-11-04T06:57:10.424Z,94.13
2018-11-04T06:59:39.643Z,99.20
2018-11-04T07:02:08.852Z,110.73
2018-11-04T07:04:38.079Z,100.43
2018-11-04T07:07:07.510Z,95.13
2018-11-04T07:09:36.723Z,96.13
2018-11-04T07:12:06.337Z,95.20
2018-11-04T07:14:35.556Z,102.77
2018-11-04T07:17:04.884Z,99.97
2018-11-04T07:19:34.145Z,110.70
2018-11-04T07:22:03.355Z,107.57
2018-11-04T07:24:32.595Z,103.87
2018-11-04T07:27:01.864Z,97.90
2018-11-04T07:29:31.286Z,104.67
2018-11-04T07:32:00.579Z,100.67
2018-11-04T07:34:29.761Z,109.67
2018-11-04T07:36:59.023Z,103.93
2018-11-04T07:39:28.246Z,104.75
2018-11-04T07:41:57.442Z,104.50
2018-11-04T07:44:26.752Z,106.23
2018-11-04T07:46:55.950Z,102.30
2018-11-04T07:49:25.253Z,118.55
2018-11-04T07:51:54.678Z,103.57
2018-11-04T07:54:23.912Z,120.20
2018-11-04T07:56:53.205Z,115.63
2018-11-04T07:59:22.442Z,117.13
2018-11-04T08:01:51.669Z,120.80
2018-11-04T08:04:21.020Z,124.20
2018-11-04T08:06:50.463Z,117.50
2018-11-04T08:09:19.747Z,117.53
2018-11-04T08:11:48.973Z,119.60
2018-11-04T08:14:18.289Z,115.17
2018-11-04T08:16:47.466Z,110.60
2018-11-04T08:19:16.643Z,126.92
2018-11-04T08:21:45.854Z,107.53
2018-11-04T08:24:15.067Z,124.27
2018-11-04T08:26:44.343Z,116.47
2018-11-04T08:29:13.562Z,111.03
2018-11-04T08:31:42.939Z,107.75
2018-11-04T08:34:12.211Z,118.97
2018-11-04T08:36:41.881Z,115.63
2018-11-04T08:39:11.541Z,107.27
2018-11-04T08:41:40.755Z,122.20
2018-11-04T08:44:10.011Z,118.67
2018-11-04T08:46:39.199Z,115.30
2018-11-04T08:49:08.539Z,135.03
2018-11-04T08:51:37.902Z,134.90
2018-11-04T08:54:07.142Z,125.50
2018-11-04T08:56:36.426Z,125.47
2018-11-04T08:59:05.895Z,120.50
2018-11-04T09:01:35.107Z,125.77
2018-11-04T09:04:04.531Z,137.00
2018-11-04T09:06:33.889Z,152.57
2018-11-04T09:10:00.517Z,140.67
2018-11-04T09:12:29.845Z,141.60
2018-11-04T09:14:59.097Z,134.03
2018-11-04T09:17:28.310Z,135.57
2018-11-04T09:19:57.546Z,137.33
2018-11-04T09:22:26.860Z,145.77
2018-11-04T09:24:56.918Z,141.30
2018-11-04T09:27:26.325Z,137.47
2018-11-04T09:29:55.649Z,154.47
2018-11-04T09:32:24.896Z,135.37
2018-11-04T09:34:54.265Z,132.30
2018-11-04T09:37:23.440Z,148.07
2018-11-04T09:39:52.785Z,143.83
2018-11-04T09:42:21.970Z,126.78
2018-11-04T09:44:51.165Z,126.20
2018-11-04T09:47:20.482Z,137.40
2018-11-04T09:49:49.702Z,137.47
2018-11-04T09:52:18.965Z,142.20
2018-11-04T09:54:48.266Z,133.37
2018-11-04T09:57:17.509Z,129.45
2018-11-04T09:59:46.969Z,134.63
2018-11-04T10:02:16.154Z,127.30
2018-11-04T10:04:45.348Z,126.40
2018-11-04T10:07:14.760Z,137.33
2018-11-04T10:09:43.957Z,138.33
2018-11-04T10:12:13.181Z,131.60
2018-11-04T10:14:42.480Z,128.83
2018-11-04T10:17:11.793Z,135.07
2018-11-04T10:19:41.230Z,141.97
2018-11-04T10:22:10.408Z,134.60
2018-11-04T10:24:39.716Z,142.37
2018-11-04T10:27:09.440Z,160.73
2018-11-04T10:29:38.732Z,135.57
2018-11-04T10:32:07.992Z,147.00
2018-11-04T10:34:37.343Z,139.57
2018-11-04T10:37:07.020Z,135.17
2018-11-04T10:39:36.262Z,152.20
2018-11-04T10:42:05.694Z,138.93
2018-11-04T10:44:34.938Z,151.47
2018-11-04T10:47:04.184Z,146.28
2018-11-04T10:49:33.588Z,156.97
2018-11-04T10:52:02.675Z,156.70
2018-11-04T10:54:31.869Z,143.37
2018-11-04T10:57:01.558Z,157.37
2018-11-04T10:59:30.962Z,145.30
2018-11-04T11:02:00.140Z,148.13
2018-11-04T11:04:29.388Z,147.60
2018-11-04T11:06:58.620Z,148.30
2018-11-04T11:09:27.818Z,154.30
2018-11-04T11:11:57.019Z,132.97
2018-11-04T11:14:26.205Z,139.63
2018-11-04T11:16:55.433Z,153.83
2018-11-04T11:19:24.898Z,149.80
2018-11-04T11:21:54.194Z,141.00
2018-11-04T11:24:23.457Z,148.23
2018-11-04T11:26:52.719Z,156.27
2018-11-04T11:29:22.015Z,145.93
2018-11-04T11:31:51.278Z,157.30
2018-11-04T11:34:20.596Z,157.60
2018-11-04T11:36:49.810Z,163.97
2018-11-04T11:39:19.125Z,163.30
2018-11-04T11:41:48.402Z,151.63
2018-11-04T11:44:17.714Z,151.67
2018-11-04T11:46:47.039Z,145.17
2018-11-04T11:49:16.287Z,160.30
2018-11-04T11:51:45.588Z,168.33
2018-11-04T11:54:14.785Z,157.93
2018-11-04T11:56:44.153Z,160.20
2018-11-04T11:59:13.419Z,147.67
2018-11-04T12:01:42.584Z,157.27
2018-11-04T12:04:11.987Z,154.23
2018-11-04T12:06:41.199Z,152.10
2018-11-04T12:09:10.631Z,158.63
2018-11-04T12:11:39.864Z,173.10
2018-11-04T12:14:09.122Z,159.23
2018-11-04T12:16:38.374Z,158.30
2018-11-04T12:19:07.823Z,168.97
2018-11-04T12:21:37.157Z,166.53
2018-11-04T12:24:06.529Z,166.53
2018-11-04T12:26:35.954Z,171.77
2018-11-04T12:29:05.645Z,170.27
2018-11-04T12:31:34.974Z,181.03
2018-11-04T12:34:04.249Z,162.63
2018-11-04T12:36:33.489Z,190.03
2018-11-04T12:39:03.062Z,162.37
2018-11-04T12:41:32.327Z,163.22
2018-11-04T12:44:01.674Z,159.33
2018-11-04T12:46:30.963Z,173.40
2018-11-04T12:49:00.247Z,184.33
2018-11-04T12:51:29.613Z,173.27
2018-11-04T12:53:58.824Z,166.53
2018-11-04T12:56:28.132Z,170.43
2018-11-04T12:58:57.588Z,176.30
2018-11-04T13:01:26.767Z,169.63
2018-11-04T13:03:57.233Z,169.07
2018-11-04T13:06:26.518Z,163.67
2018-11-04T13:08:55.731Z,185.50
2018-11-04T13:11:24.966Z,174.60
2018-11-04T13:13:54.187Z,175.67
2018-11-04T13:16:23.514Z,169.67
2018-11-04T13:18:52.711Z,174.33
2018-11-04T13:21:21.976Z,173.20
2018-11-04T13:23:51.251Z,166.90
2018-11-04T13:26:20.498Z,175.27
2018-11-04T13:28:49.721Z,178.00
2018-11-04T13:31:18.981Z,164.25
2018-11-04T13:33:48.307Z,176.33
2018-11-04T13:36:17.593Z,199.33
2018-11-04T13:38:46.912Z,168.28
2018-11-04T13:41:16.149Z,175.97
2018-11-04T13:43:45.390Z,177.53
2018-11-04T13:46:14.763Z,167.03
2018-11-04T13:48:43.973Z,178.83
2018-11-04T13:51:13.371Z,171.60
2018-11-04T13:53:42.615Z,163.67
2018-11-04T13:56:11.968Z,185.63
2018-11-04T13:58:41.283Z,172.73
2018-11-04T14:01:10.499Z,166.33
2018-11-04T14:03:39.735Z,159.10
2018-11-04T14:06:09.297Z,159.93
2018-11-04T14:08:38.556Z,153.87
2018-11-04T14:11:08.135Z,162.90
2018-11-04T14:13:37.410Z,154.87
2018-11-04T14:16:06.702Z,171.40
2018-11-04T14:18:36.083Z,165.57
2018-11-04T14:21:05.665Z,152.33
2018-11-04T14:23:34.897Z,171.97
2018-11-04T14:26:04.216Z,168.77
2018-11-04T14:28:33.522Z,172.57
2018-11-04T14:31:02.845Z,160.40
2018-11-04T14:33:32.238Z,147.80
2018-11-04T14:36:01.458Z,153.57
2018-11-04T14:38:30.750Z,153.20
2018-11-04T14:41:00.002Z,150.57
2018-11-04T14:43:29.283Z,156.30
2018-11-04T14:45:58.523Z,147.40
2018-11-04T14:48:27.752Z,159.70
2018-11-04T14:50:57.083Z,160.10
2018-11-04T14:53:26.370Z,148.83
2018-11-04T14:55:55.607Z,154.83
2018-11-04T14:58:24.857Z,147.37
2018-11-04T15:00:54.056Z,160.77
2018-11-04T15:03:24.434Z,146.27
2018-11-04T15:05:53.716Z,149.97
2018-11-04T15:08:23.124Z,149.10
2018-11-04T15:10:53.333Z,138.60
2018-11-04T15:13:22.612Z,146.35
2018-11-04T15:15:51.850Z,156.07
2018-11-04T15:18:21.184Z,141.37
2018-11-04T15:20:50.496Z,139.23
2018-11-04T15:23:19.715Z,145.47
2018-11-04T15:25:49.064Z,144.43
2018-11-04T15:28:18.310Z,138.70
2018-11-04T15:30:47.590Z,148.40
2018-11-04T15:33:16.934Z,147.47
2018-11-04T15:35:46.271Z,157.70
2018-11-04T15:38:15.528Z,153.30
2018-11-04T15:40:44.828Z,139.57
2018-11-04T15:43:13.979Z,140.92
2018-11-04T15:45:43.207Z,146.43
2018-11-04T15:48:12.581Z,160.17
2018-11-04T15:50:41.855Z,156.23
2018-11-04T15:53:11.287Z,166.18
2018-11-04T15:55:40.838Z,144.77
2018-11-04T15:58:10.122Z,154.20
2018-11-04T16:00:39.403Z,159.63
2018-11-04T16:03:09.013Z,145.67
2018-11-04T16:05:38.351Z,150.43
2018-11-04T16:08:07.649Z,164.50
2018-11-04T16:10:36.963Z,167.65
2018-11-04T16:13:06.251Z,171.10
2018-11-04T16:15:35.622Z,149.03
2018-11-04T16:18:04.975Z,184.67
2018-11-04T16:20:34.265Z,166.93
2018-11-04T16:23:03.429Z,168.77
2018-11-04T16:25:32.669Z,161.07
2018-11-04T16:28:01.863Z,165.63
2018-11-04T16:30:31.127Z,184.43
2018-11-04T16:33:00.404Z,169.70
2018-11-04T16:35:29.607Z,170.30
2018-11-04T16:37:58.884Z,186.20
2018-11-04T16:40:27.978Z,172.40
2018-11-04T16:42:58.071Z,179.33
2018-11-04T16:45:27.323Z,184.63
2018-11-04T16:47:56.787Z,184.70
2018-11-04T16:50:25.970Z,196.87
2018-11-04T16:52:55.154Z,168.13
2018-11-04T16:55:24.361Z,177.15
2018-11-04T16:57:53.615Z,197.03
2018-11-04T17:00:22.835Z,191.60
2018-11-04T17:02:52.021Z,174.10
2018-11-04T17:05:21.339Z,182.43
2018-11-04T17:07:50.542Z,185.30
2018-11-04T17:10:19.812Z,179.00
2018-11-04T17:12:49.105Z,192.35
2018-11-04T17:15:18.370Z,178.60
2018-11-04T17:17:47.901Z,190.30
2018-11-04T17:20:18.218Z,198.27
2018-11-04T17:22:47.577Z,190.13
2018-11-04T17:25:16.866Z,182.35
2018-11-04T17:27:46.179Z,194.47
2018-11-04T17:30:16.940Z,200.62
2018-11-04T17:32:46.562Z,193.83
2018-11-04T17:35:16.710Z,175.70
2018-11-04T17:37:46.638Z,179.97
2018-11-04T17:40:16.700Z,197.00
2018-11-04T17:42:45.991Z,204.90
2018-11-04T17:45:16.423Z,200.93
2018-11-04T17:47:46.246Z,196.00
2018-11-04T17:50:17.015Z,204.63
2018-11-04T17:52:46.343Z,198.63
2018-11-04T17:55:16.309Z,192.20
2018-11-04T17:57:46.070Z,222.37
2018-11-04T18:00:16.468Z,205.33
2018-11-04T18:02:45.723Z,178.10
2018-11-04T18:05:15.109Z,206.63
2018-11-04T18:07:44.847Z,197.37
2018-11-04T18:10:15.499Z,215.47
2018-11-04T18:12:44.773Z,205.10
2018-11-04T18:15:15.032Z,193.93
2018-11-04T18:17:44.439Z,210.60
2018-11-04T18:20:13.957Z,190.03
2018-11-04T18:22:43.202Z,195.80
2018-11-04T18:25:12.934Z,195.13
2018-11-04T18:27:42.241Z,471.60
2018-11-04T18:30:15.368Z,217.30
2018-11-04T18:32:45.288Z,175.20
2018-11-04T18:35:14.707Z,179.27
2018-11-04T18:37:44.061Z,199.53
2018-11-04T18:40:15.533Z,200.83
2018-11-04T18:42:45.212Z,192.53
2018-11-04T18:45:15.719Z,202.40
2018-11-04T18:47:45.293Z,209.22
2018-11-04T18:50:15.295Z,205.40
2018-11-04T18:52:44.634Z,215.67
2018-11-04T18:55:13.812Z,232.57
2018-11-04T18:57:44.196Z,204.60
2018-11-04T19:00:14.850Z,204.27
2018-11-04T19:02:44.483Z,206.63
2018-11-04T19:05:14.034Z,208.73
2018-11-04T19:07:44.880Z,209.10
2018-11-04T19:10:16.842Z,191.67
2018-11-04T19:12:46.170Z,192.53
2018-11-04T19:15:15.536Z,185.20
2018-11-04T19:17:44.820Z,191.93
2018-11-04T19:20:14.972Z,209.43
2018-11-04T19:22:44.322Z,187.17
2018-11-04T19:25:14.464Z,182.70
2018-11-04T19:27:43.710Z,200.40
2018-11-04T19:30:14.866Z,215.30
2018-11-04T19:32:44.645Z,192.10
2018-11-04T19:35:15.192Z,194.23
2018-11-04T19:37:44.363Z,186.70
2018-11-04T19:40:14.675Z,230.50
2018-11-04T19:42:45.105Z,186.23
2018-11-04T19:45:14.532Z,202.03
2018-11-04T19:47:43.778Z,220.60
2018-11-04T19:50:16.726Z,194.53
2018-11-04T19:52:45.977Z,203.62
2018-11-04T19:55:15.219Z,202.00
2018-11-04T19:57:44.434Z,190.20
2018-11-04T20:00:14.168Z,187.07
2018-11-04T20:02:43.337Z,191.23
2018-11-04T20:05:13.282Z,211.87
2018-11-04T20:07:43.029Z,178.83
2018-11-04T20:10:19.281Z,193.83
2018-11-04T20:12:53.982Z,176.83
2018-11-04T20:15:23.366Z,165.27
2018-11-04T20:17:52.721Z,170.03
2018-11-04T20:20:24.026Z,178.30
2018-11-04T20:22:53.434Z,168.40
2018-11-04T20:25:27.977Z,165.37
2018-11-04T20:27:57.214Z,172.93
2018-11-04T20:30:26.547Z,177.63
2018-11-04T20:33:03.871Z,164.67
2018-11-04T20:35:33.319Z,163.87
2018-11-04T20:38:02.745Z,161.70
2018-11-04T20:40:37.323Z,158.10
2018-11-04T20:43:06.864Z,154.80
2018-11-04T20:45:36.114Z,163.67
2018-11-04T20:48:11.058Z,146.37
2018-11-04T20:50:45.599Z,148.57
2018-11-04T20:53:14.925Z,149.73
2018-11-04T20:55:49.404Z,158.73
2018-11-04T20:58:18.718Z,165.87
2018-11-04T21:00:48.977Z,157.63
2018-11-04T21:03:18.176Z,148.17
2018-11-04T21:05:47.439Z,154.83
2018-11-04T21:08:16.791Z,143.97
2018-11-04T21:10:46.065Z,127.57
2018-11-04T21:13:15.362Z,154.17
2018-11-04T21:15:44.642Z,136.10
2018-11-04T21:18:13.914Z,141.83
2018-11-04T21:20:43.745Z,133.37
2018-11-04T21:23:12.991Z,160.00
2018-11-04T21:25:42.432Z,139.70
2018-11-04T21:28:11.591Z,136.13
2018-11-04T21:30:40.890Z,158.57
2018-11-04T21:33:10.262Z,167.73
2018-11-04T21:35:39.514Z,180.10
2018-11-04T21:38:08.822Z,163.97
2018-11-04T21:40:38.035Z,168.67
2018-11-04T21:43:07.634Z,158.23
2018-11-04T21:45:36.628Z,155.63
2018-11-04T21:48:06.353Z,160.43
2018-11-04T21:50:35.606Z,169.30
2018-11-04T21:53:04.821Z,175.47
2018-11-04T21:55:34.361Z,157.60
2018-11-04T21:58:03.457Z,177.60
2018-11-04T22:00:32.728Z,150.10
2018-11-04T22:03:01.990Z,151.27
2018-11-04T22:05:31.219Z,161.77
2018-11-04T22:08:00.437Z,159.80
2018-11-04T22:10:29.726Z,158.53
2018-11-04T22:12:58.862Z,160.60
2018-11-04T22:15:28.082Z,164.93
2018-11-04T22:17:57.282Z,149.80
2018-11-04T22:20:26.456Z,163.60
2018-11-04T22:22:55.625Z,159.13
2018-11-04T22:25:24.865Z,152.13
2018-11-04T22:27:54.056Z,143.93
2018-11-04T22:30:23.254Z,136.63
2018-11-04T22:32:52.396Z,143.73
2018-11-04T22:35:21.582Z,131.07
2018-11-04T22:37:50.789Z,134.63
2018-11-04T22:40:19.966Z,131.27
2018-11-04T22:42:49.412Z,133.30
2018-11-04T22:45:18.597Z,124.60
2018-11-04T22:47:47.807Z,119.40
2018-11-04T22:50:17.015Z,126.73
2018-11-04T22:52:46.299Z,133.37
2018-11-04T22:55:15.670Z,124.13
2018-11-04T22:57:45.340Z,133.60
2018-11-04T23:00:19.699Z,138.87
2018-11-04T23:02:49.990Z,130.93
2018-11-04T23:05:24.357Z,135.82
2018-11-04T23:07:53.606Z,130.10
2018-11-04T23:10:22.834Z,116.13
2018-11-04T23:12:52.024Z,126.77
2018-11-04T23:15:21.223Z,119.67
2018-11-04T23:17:50.357Z,129.83
2018-11-04T23:20:19.588Z,150.13
2018-11-04T23:22:48.798Z,124.93
2018-11-04T23:25:18.056Z,127.83
2018-11-04T23:27:47.327Z,132.23
2018-11-04T23:30:20.666Z,136.30
2018-11-04T23:32:49.908Z,129.97
2018-11-04T23:35:19.180Z,121.30
2018-11-04T23:37:48.389Z,136.53
2018-11-04T23:40:17.611Z,118.60
2018-11-04T23:42:46.833Z,123.63
2018-11-04T23:45:16.166Z,122.53
2018-11-04T23:47:45.344Z,127.30
2018-11-04T23:50:16.509Z,114.87
2018-11-04T23:52:46.141Z,130.43
2018-11-04T23:55:15.813Z,124.83
2018-11-04T23:57:45.013Z,114.67
